createdAt,value
2022-10-22T00:00:05.944Z,31.77
2022-10-22T00:02:54.703Z,30.43
2022-10-22T00:05:24.902Z,36.17
2022-10-22T00:07:53.636Z,31.30
2022-10-22T00:10:22.663Z,32.30
2022-10-22T00:12:51.267Z,33.27
2022-10-22T00:15:20.266Z,32.33
2022-10-22T00:17:49.340Z,33.70
2022-10-22T00:20:21.008Z,33.97
2022-10-22T00:25:24.680Z,38.17
2022-10-22T00:27:53.374Z,31.85
2022-10-22T00:30:22.739Z,30.33
2022-10-22T00:32:51.411Z,30.10
2022-10-22T00:35:19.930Z,35.00
2022-10-22T00:37:48.496Z,33.13
2022-10-22T00:40:17.668Z,31.03
2022-10-22T00:42:49.467Z,31.17
2022-10-22T00:45:27.131Z,35.70
2022-10-22T00:48:00.115Z,32.80
2022-10-22T00:50:34.027Z,37.70
2022-10-22T00:53:04.368Z,33.63
2022-10-22T00:55:37.320Z,32.93
2022-10-22T00:58:08.377Z,30.20
2022-10-22T01:00:41.622Z,29.33
2022-10-22T01:03:14.180Z,29.73
2022-10-22T01:05:47.812Z,33.03
2022-10-22T01:08:25.671Z,26.90
2022-10-22T01:11:08.365Z,29.90
2022-10-22T01:13:50.533Z,31.03
2022-10-22T01:16:26.022Z,29.57
2022-10-22T01:19:05.245Z,30.87
2022-10-22T01:21:40.921Z,32.40
2022-10-22T01:24:38.428Z,29.33
2022-10-22T01:27:30.602Z,30.47
2022-10-22T01:30:03.613Z,34.87
2022-10-22T01:32:36.695Z,28.83
2022-10-22T01:35:10.295Z,28.97
2022-10-22T01:37:45.532Z,27.45
2022-10-22T01:40:19.382Z,30.83
2022-10-22T01:42:58.789Z,29.70
2022-10-22T01:45:30.160Z,28.60
2022-10-22T01:48:12.266Z,29.60
2022-10-22T01:51:01.191Z,24.80
2022-10-22T01:53:42.563Z,33.67
2022-10-22T01:56:34.527Z,34.57
2022-10-22T01:59:10.522Z,29.03
2022-10-22T02:01:54.104Z,27.63
2022-10-22T02:04:27.896Z,25.87
2022-10-22T02:07:01.259Z,28.60
2022-10-22T02:09:32.029Z,31.37
2022-10-22T02:12:03.534Z,25.43
2022-10-22T02:14:34.015Z,26.63
2022-10-22T02:17:03.936Z,29.00
2022-10-22T02:19:43.500Z,27.03
2022-10-22T02:22:13.703Z,26.73
2022-10-22T02:24:44.742Z,27.03
2022-10-22T02:27:25.837Z,30.87
2022-10-22T02:30:02.838Z,28.20
2022-10-22T02:32:43.008Z,29.13
2022-10-22T02:35:14.949Z,27.97
2022-10-22T02:37:44.493Z,30.90
2022-10-22T02:40:13.722Z,29.60
2022-10-22T02:42:46.179Z,27.40
2022-10-22T02:45:15.850Z,31.17
2022-10-22T02:47:44.381Z,31.37
2022-10-22T02:50:13.343Z,32.17
2022-10-22T02:52:44.180Z,33.93
2022-10-22T02:55:15.319Z,32.53
2022-10-22T02:57:45.314Z,31.30
2022-10-22T03:00:15.837Z,29.90
2022-10-22T03:02:45.432Z,27.80
2022-10-22T03:05:13.911Z,31.47
2022-10-22T03:07:43.271Z,35.37
2022-10-22T03:10:14.568Z,31.20
2022-10-22T03:12:43.367Z,28.23
2022-10-22T03:15:12.111Z,30.23
2022-10-22T03:17:42.906Z,35.10
2022-10-22T03:20:11.638Z,29.40
2022-10-22T03:22:42.731Z,27.50
2022-10-22T03:25:18.279Z,30.77
2022-10-22T03:27:48.961Z,28.37
2022-10-22T03:30:17.897Z,27.77
2022-10-22T03:32:46.740Z,28.80
2022-10-22T03:35:15.431Z,28.63
2022-10-22T03:37:47.031Z,30.97
2022-10-22T03:40:19.612Z,29.37
2022-10-22T03:42:48.199Z,28.47
2022-10-22T03:45:17.269Z,26.57
2022-10-22T03:47:52.486Z,32.30
2022-10-22T03:50:21.371Z,27.13
2022-10-22T03:52:53.866Z,27.77
2022-10-22T03:55:22.671Z,30.83
2022-10-22T03:57:53.993Z,24.83
2022-10-22T04:00:22.819Z,26.73
2022-10-22T04:02:51.409Z,28.77
2022-10-22T04:05:20.158Z,25.83
2022-10-22T04:07:48.895Z,25.57
2022-10-22T04:10:18.049Z,23.60
2022-10-22T04:12:48.314Z,24.70
2022-10-22T04:15:17.667Z,22.77
2022-10-22T04:17:46.533Z,28.77
2022-10-22T04:20:17.800Z,27.37
2022-10-22T04:22:46.391Z,25.10
2022-10-22T04:25:17.562Z,23.87
2022-10-22T04:27:51.378Z,24.93
2022-10-22T04:30:20.339Z,27.70
2022-10-22T04:32:48.937Z,24.05
2022-10-22T04:35:17.976Z,28.10
2022-10-22T04:37:47.188Z,27.00
2022-10-22T04:40:18.201Z,23.73
2022-10-22T04:42:49.935Z,25.80
2022-10-22T04:45:21.777Z,26.73
2022-10-22T04:47:50.961Z,27.57
2022-10-22T04:50:19.657Z,26.80
2022-10-22T04:52:48.646Z,25.30
2022-10-22T04:55:22.669Z,22.73
2022-10-22T05:00:23.721Z,25.57
2022-10-22T05:02:52.423Z,24.43
2022-10-22T05:05:24.178Z,26.00
2022-10-22T05:07:52.860Z,24.17
2022-10-22T05:10:24.551Z,26.50
2022-10-22T05:12:58.751Z,26.67
2022-10-22T05:15:31.478Z,27.13
2022-10-22T05:18:03.576Z,27.67
2022-10-22T05:20:33.512Z,23.17
2022-10-22T05:23:04.836Z,28.80
2022-10-22T05:25:37.553Z,26.67
2022-10-22T05:28:06.689Z,24.67
2022-10-22T05:30:38.567Z,24.60
2022-10-22T05:33:11.983Z,25.33
2022-10-22T05:35:46.639Z,31.20
2022-10-22T05:38:18.769Z,38.17
2022-10-22T05:41:05.565Z,26.95
2022-10-22T05:43:35.301Z,22.80
2022-10-22T05:46:07.400Z,27.50
2022-10-22T05:48:38.198Z,28.35
2022-10-22T05:51:10.378Z,28.53
2022-10-22T05:53:43.921Z,34.23
2022-10-22T05:56:14.977Z,42.62
2022-10-22T05:58:44.727Z,31.17
2022-10-22T06:01:19.128Z,28.93
2022-10-22T06:03:53.719Z,36.80
2022-10-22T06:06:30.626Z,43.43
2022-10-22T06:09:06.577Z,33.03
2022-10-22T06:11:42.767Z,29.83
2022-10-22T06:14:20.682Z,33.43
2022-10-22T06:16:50.524Z,28.37
2022-10-22T06:19:26.208Z,33.43
2022-10-22T06:21:58.733Z,27.50
2022-10-22T06:24:27.625Z,27.77
2022-10-22T06:26:59.480Z,27.40
2022-10-22T06:29:28.460Z,27.67
2022-10-22T06:32:00.881Z,27.30
2022-10-22T06:34:31.013Z,25.07
2022-10-22T06:36:59.757Z,28.23
2022-10-22T06:39:31.764Z,24.80
2022-10-22T06:42:01.151Z,26.37
2022-10-22T06:44:31.854Z,28.83
2022-10-22T06:47:03.409Z,23.77
2022-10-22T06:49:35.384Z,31.17
2022-10-22T06:52:05.079Z,28.17
2022-10-22T06:54:34.024Z,22.93
2022-10-22T06:57:02.702Z,26.43
2022-10-22T06:59:31.773Z,20.30
2022-10-22T07:02:00.286Z,22.30
2022-10-22T07:04:30.047Z,24.60
2022-10-22T07:07:01.673Z,26.77
2022-10-22T07:09:30.505Z,25.50
2022-10-22T07:11:59.511Z,24.97
2022-10-22T07:14:30.937Z,22.87
2022-10-22T07:17:06.087Z,23.13
2022-10-22T07:19:37.727Z,22.57
2022-10-22T07:22:09.066Z,23.77
2022-10-22T07:24:37.975Z,25.60
2022-10-22T07:27:09.451Z,22.37
2022-10-22T07:29:41.714Z,21.97
2022-10-22T07:32:20.609Z,22.50
2022-10-22T07:34:54.136Z,25.80
2022-10-22T07:37:24.111Z,24.57
2022-10-22T07:39:53.300Z,24.20
2022-10-22T07:42:23.121Z,23.90
2022-10-22T07:44:54.283Z,20.90
2022-10-22T07:47:23.445Z,23.77
2022-10-22T07:49:52.350Z,22.97
2022-10-22T07:52:21.182Z,21.47
2022-10-22T07:54:50.138Z,25.10
2022-10-22T07:57:18.809Z,25.43
2022-10-22T07:59:57.955Z,21.57
2022-10-22T08:05:16.786Z,25.43
2022-10-22T08:07:48.188Z,22.47
2022-10-22T08:10:16.771Z,27.57
2022-10-22T08:12:45.558Z,20.83
2022-10-22T08:15:14.849Z,22.00
2022-10-22T08:17:46.042Z,24.27
2022-10-22T08:20:14.816Z,24.00
2022-10-22T08:22:45.990Z,20.50
2022-10-22T08:25:17.495Z,23.80
2022-10-22T08:27:47.644Z,27.33
2022-10-22T08:30:16.645Z,23.13
2022-10-22T08:32:49.388Z,19.53
2022-10-22T08:35:20.320Z,21.33
2022-10-22T08:37:49.464Z,20.33
2022-10-22T08:40:31.218Z,24.93
2022-10-22T08:43:47.325Z,21.97
2022-10-22T08:46:49.158Z,23.47
2022-10-22T08:49:21.579Z,23.17
2022-10-22T08:51:50.645Z,19.77
2022-10-22T08:54:30.042Z,21.63
2022-10-22T08:57:17.102Z,22.53
2022-10-22T09:00:00.020Z,23.13
2022-10-22T09:02:42.211Z,26.30
2022-10-22T09:05:33.438Z,29.00
2022-10-22T09:08:05.588Z,28.90
2022-10-22T09:10:38.340Z,32.23
2022-10-22T09:13:11.854Z,24.50
2022-10-22T09:15:43.766Z,23.42
2022-10-22T09:18:32.356Z,25.17
2022-10-22T09:21:15.017Z,26.37
2022-10-22T09:23:56.413Z,24.90
2022-10-22T09:29:54.078Z,30.03
2022-10-22T09:32:23.422Z,29.93
2022-10-22T09:34:57.746Z,25.70
2022-10-22T09:37:29.104Z,30.20
2022-10-22T09:40:05.824Z,34.27
2022-10-22T09:42:35.042Z,28.77
2022-10-22T09:45:04.658Z,30.77
2022-10-22T09:48:00.447Z,38.00
2022-10-22T09:50:38.593Z,49.07
2022-10-22T09:53:18.339Z,40.20
2022-10-22T09:58:25.452Z,34.33
2022-10-22T10:01:01.048Z,27.23
2022-10-22T10:03:32.963Z,31.87
2022-10-22T10:06:07.003Z,25.93
2022-10-22T10:08:35.731Z,28.23
2022-10-22T10:11:10.809Z,25.77
2022-10-22T10:14:01.879Z,28.47
2022-10-22T10:16:52.883Z,24.83
2022-10-22T10:19:35.840Z,24.90
2022-10-22T10:22:22.073Z,24.97
2022-10-22T10:25:02.918Z,27.23
2022-10-22T10:27:45.951Z,29.70
2022-10-22T10:30:17.885Z,28.37
2022-10-22T10:33:11.444Z,30.67
2022-10-22T10:35:54.769Z,30.08
2022-10-22T10:38:40.251Z,29.20
2022-10-22T10:41:23.759Z,27.23
2022-10-22T10:44:16.424Z,31.53
2022-10-22T10:46:57.981Z,27.97
2022-10-22T10:49:30.594Z,26.30
2022-10-22T10:52:08.140Z,25.70
2022-10-22T10:54:47.875Z,24.53
2022-10-22T10:57:32.706Z,27.70
2022-10-22T11:00:10.058Z,28.80
2022-10-22T11:03:18.919Z,27.40
2022-10-22T11:05:54.250Z,28.97
2022-10-22T11:08:28.333Z,26.60
2022-10-22T11:11:07.987Z,28.27
2022-10-22T11:13:43.207Z,27.53
2022-10-22T11:16:23.214Z,30.67
2022-10-22T11:19:03.053Z,24.60
2022-10-22T11:21:42.391Z,25.70
2022-10-22T11:24:22.759Z,25.13
2022-10-22T11:26:58.129Z,28.67
2022-10-22T11:29:35.055Z,26.70
2022-10-22T11:32:16.585Z,26.57
2022-10-22T11:34:56.818Z,26.83
2022-10-22T11:37:32.600Z,27.53
2022-10-22T11:40:08.669Z,28.00
2022-10-22T11:45:29.320Z,25.87
2022-10-22T11:48:16.041Z,27.67
2022-10-22T11:50:56.218Z,32.07
2022-10-22T11:53:32.329Z,27.93
2022-10-22T11:56:19.699Z,28.60
2022-10-22T11:58:59.634Z,27.67
2022-10-22T12:01:40.448Z,30.20
2022-10-22T12:04:22.089Z,29.70
2022-10-22T12:07:09.449Z,29.90
2022-10-22T12:12:35.919Z,27.33
2022-10-22T12:15:31.912Z,28.83
2022-10-22T12:18:04.160Z,27.67
2022-10-22T12:20:32.741Z,30.47
2022-10-22T12:23:02.265Z,29.67
2022-10-22T12:25:36.108Z,30.70
2022-10-22T12:28:15.678Z,30.17
2022-10-22T12:30:45.348Z,32.23
2022-10-22T12:33:23.288Z,28.93
2022-10-22T12:35:57.190Z,32.80
2022-10-22T12:38:25.949Z,31.37
2022-10-22T12:40:57.274Z,33.73
2022-10-22T12:43:30.286Z,32.40
2022-10-22T12:46:00.205Z,29.52
2022-10-22T12:48:36.298Z,29.37
2022-10-22T12:51:09.116Z,32.60
2022-10-22T12:53:43.772Z,32.73
2022-10-22T12:56:15.376Z,31.00
2022-10-22T12:59:02.955Z,34.73
2022-10-22T13:01:42.817Z,29.43
2022-10-22T13:04:32.253Z,29.80
2022-10-22T13:07:22.362Z,36.23
2022-10-22T13:10:00.163Z,32.50
2022-10-22T13:12:36.666Z,30.13
2022-10-22T13:15:23.554Z,32.47
2022-10-22T13:18:03.492Z,30.60
2022-10-22T13:20:32.883Z,32.47
2022-10-22T13:23:04.158Z,33.07
2022-10-22T13:25:34.552Z,35.00
2022-10-22T13:28:24.521Z,36.10
2022-10-22T13:30:56.848Z,35.40
2022-10-22T13:33:29.379Z,32.83
2022-10-22T13:36:01.615Z,34.77
2022-10-22T13:38:41.924Z,32.60
2022-10-22T13:41:26.396Z,37.17
2022-10-22T13:44:00.689Z,38.23
2022-10-22T13:46:35.369Z,36.13
2022-10-22T13:49:05.128Z,37.17
2022-10-22T13:51:37.002Z,34.57
2022-10-22T13:54:13.680Z,37.40
2022-10-22T13:56:44.662Z,36.97
2022-10-22T13:59:15.402Z,33.90
2022-10-22T14:01:54.437Z,37.07
2022-10-22T14:04:26.434Z,35.43
2022-10-22T14:06:57.673Z,36.03
2022-10-22T14:09:29.419Z,42.73
2022-10-22T14:11:58.099Z,40.60
2022-10-22T14:14:27.527Z,43.43
2022-10-22T14:16:56.419Z,38.07
2022-10-22T14:19:25.776Z,37.47
2022-10-22T14:22:12.302Z,41.97
2022-10-22T14:25:23.247Z,36.37
2022-10-22T14:28:10.882Z,36.97
2022-10-22T14:30:59.100Z,40.63
2022-10-22T14:33:49.088Z,46.90
2022-10-22T14:36:40.707Z,46.60
2022-10-22T14:39:40.869Z,41.57
2022-10-22T14:42:21.387Z,42.23
2022-10-22T14:45:17.535Z,43.47
2022-10-22T14:48:09.541Z,37.37
2022-10-22T14:50:57.902Z,41.10
